Terminal Aerodrome Forecast
Issued by NWS

Home | Current Version | Previous Version | Graphics & Text | Print | Product List | Glossary On
Versions: 1 2 3 4 5 6 7 8 9 10 11 12 13 14 15 16 17 18 19 20 21 22 23
000
FTUS43 KOAX 222324
TAFCDR
TAF
KCDR 222324Z 2300/2324 07014KT P6SM SCT030
     FM230300 07013KT P6SM OVC025
     FM230600 17009KT 4SM BR BKN005 OVC015
     FM230900 10008KT 2SM BR BKN002 OVC005
     FM231700 15010KT P6SM BKN015 OVC050=

USA.gov is the U.S. government's official web portal to all federal, state and local government web resources and services.